Time;durP1;ratioP1;P1;durP2;ratioP2;P2;SDS_P1;SDS_P2;PMS_P1;PMS_P2;Temp;Humidity;BMP_temperature;BMP_pressure;BME280_temperature;BME280_humidity;BME280_pressure;Samples;Min_cycle;Max_cycle;Signal;HPM_P1;HPM_P2
2023/03/16 00:00:12;;;;;;;10.07;7.47;;;;;;;;;;4981958;28;20046;-71
2023/03/16 00:02:41;;;;;;;12.77;7.72;;;;;;;;;;4982646;28;20143;-71
2023/03/16 00:05:08;;;;;;;13.07;7.38;;;;;;;;;;4981586;28;20088;-71
2023/03/16 00:07:34;;;;;;;14.75;7.30;;;;;;;;;;4980785;28;20493;-72
2023/03/16 00:10:00;;;;;;;12.93;7.53;;;;;;;;;;4981982;28;20572;-71
2023/03/16 00:12:25;;;;;;;13.55;7.90;;;;;;;;;;4982196;28;20051;-71
2023/03/16 00:14:51;;;;;;;14.75;7.38;;;;;;;;;;4981319;28;20107;-71
2023/03/16 00:17:19;;;;;;;12.38;8.13;;;;;;;;;;4982252;28;20050;-72
2023/03/16 00:19:46;;;;;;;8.93;6.55;;;;;;;;;;4979848;28;20050;-71
2023/03/16 00:22:13;;;;;;;11.43;7.43;;;;;;;;;;4981788;28;20645;-71
2023/03/16 00:24:42;;;;;;;12.63;7.25;;;;;;;;;;4981383;28;20104;-71
2023/03/16 00:27:13;;;;;;;11.55;7.38;;;;;;;;;;4981940;28;20049;-71
2023/03/16 00:29:47;;;;;;;13.57;7.95;;;;;;;;;;4980362;28;20097;-72
2023/03/16 00:32:16;;;;;;;13.82;8.45;;;;;;;;;;4981176;28;20062;-71
2023/03/16 00:34:43;;;;;;;14.50;7.95;;;;;;;;;;4963240;28;20050;-72
2023/03/16 00:37:12;;;;;;;10.85;7.75;;;;;;;;;;4981660;28;20069;-71
2023/03/16 00:39:40;;;;;;;12.98;7.80;;;;;;;;;;4980971;28;20050;-72
2023/03/16 00:42:06;;;;;;;13.32;8.68;;;;;;;;;;4980876;28;20046;-71
2023/03/16 00:44:32;;;;;;;19.23;9.18;;;;;;;;;;4980660;28;20046;-72
2023/03/16 00:46:57;;;;;;;21.27;11.00;;;;;;;;;;4962272;28;20069;-72
2023/03/16 00:49:23;;;;;;;17.48;11.60;;;;;;;;;;4981310;28;20076;-72
2023/03/16 00:51:48;;;;;;;24.23;11.07;;;;;;;;;;4962136;28;20052;-72
2023/03/16 00:54:13;;;;;;;20.88;10.73;;;;;;;;;;4980507;28;20053;-72
2023/03/16 00:56:39;;;;;;;16.73;11.00;;;;;;;;;;4981165;28;20124;-71
2023/03/16 00:59:04;;;;;;;23.00;12.45;;;;;;;;;;4981305;28;20038;-71
2023/03/16 01:01:33;;;;;;;19.63;10.15;;;;;;;;;;4962212;28;20042;-72
2023/03/16 01:03:59;;;;;;;14.02;10.00;;;;;;;;;;4980188;28;20085;-71
2023/03/16 01:06:25;;;;;;;21.15;11.45;;;;;;;;;;4980648;28;20504;-71
2023/03/16 01:08:51;;;;;;;17.80;10.45;;;;;;;;;;4980093;28;20046;-71
2023/03/16 01:11:20;;;;;;;17.65;11.30;;;;;;;;;;4963343;28;20045;-71
2023/03/16 01:13:47;;;;;;;17.27;11.00;;;;;;;;;;4969309;28;20499;-72
2023/03/16 01:16:14;;;;;;;15.30;10.02;;;;;;;;;;4978453;28;20046;-71
2023/03/16 01:18:40;;;;;;;16.85;9.65;;;;;;;;;;4979439;28;20570;-72
2023/03/16 01:21:08;;;;;;;15.18;9.70;;;;;;;;;;4978857;28;20054;-71
2023/03/16 01:23:36;;;;;;;14.82;9.70;;;;;;;;;;4961321;28;20080;-71
2023/03/16 01:26:02;;;;;;;14.15;9.02;;;;;;;;;;4960713;28;20050;-72
2023/03/16 01:28:29;;;;;;;16.13;9.07;;;;;;;;;;4979735;28;20460;-70
2023/03/16 01:31:03;;;;;;;14.38;9.63;;;;;;;;;;4976786;28;20125;-70
2023/03/16 01:33:30;;;;;;;14.80;9.30;;;;;;;;;;4978256;28;20497;-71
2023/03/16 01:36:00;;;;;;;14.48;10.23;;;;;;;;;;4978606;28;20721;-71
2023/03/16 01:38:29;;;;;;;;;;;;;;;;;;4962805;28;20560;-71
2023/03/16 01:40:55;;;;;;;11.43;8.25;;;;;;;;;;4961892;28;20444;-71
2023/03/16 01:43:24;;;;;;;19.33;9.82;;;;;;;;;;4963764;28;20050;-71
2023/03/16 01:46:04;;;;;;;117.07;12.35;;;;;;;;;;4971690;28;21069;-71
2023/03/16 01:48:41;;;;;;;106.30;13.32;;;;;;;;;;4978161;28;20046;-71
2023/03/16 01:51:13;;;;;;;132.43;14.15;;;;;;;;;;4963428;28;20053;-71
2023/03/16 01:53:43;;;;;;;245.50;16.40;;;;;;;;;;4963463;28;20362;-72
2023/03/16 01:56:12;;;;;;;161.07;13.82;;;;;;;;;;4962601;28;20046;-73
2023/03/16 01:58:38;;;;;;;151.98;16.10;;;;;;;;;;4980910;28;20038;-71
2023/03/16 02:01:04;;;;;;;131.57;16.05;;;;;;;;;;4979821;28;20049;-71
2023/03/16 02:03:33;;;;;;;153.77;15.80;;;;;;;;;;4962266;28;20039;-72
2023/03/16 02:06:19;;;;;;;160.13;14.43;;;;;;;;;;4962195;28;20049;-71
2023/03/16 02:08:54;;;;;;;204.10;16.10;;;;;;;;;;4981345;28;20125;-71
2023/03/16 02:11:21;;;;;;;173.15;16.77;;;;;;;;;;4962195;28;20398;-71
2023/03/16 02:14:09;;;;;;;121.28;16.05;;;;;;;;;;4949005;28;20071;-71
2023/03/16 02:16:35;;;;;;;91.90;14.55;;;;;;;;;;4983098;28;20862;-71
2023/03/16 02:19:01;;;;;;;34.13;13.00;;;;;;;;;;4967410;28;20524;-72
2023/03/16 02:21:47;;;;;;;73.72;13.50;;;;;;;;;;4965776;28;20050;-71
2023/03/16 02:24:13;;;;;;;133.57;12.73;;;;;;;;;;4980040;28;20116;-71
2023/03/16 02:26:47;;;;;;;185.57;15.68;;;;;;;;;;4967243;28;20501;-71
2023/03/16 02:29:42;;;;;;;173.55;12.95;;;;;;;;;;4967329;28;20050;-71
2023/03/16 02:32:08;;;;;;;162.48;12.00;;;;;;;;;;4961202;28;20633;-71
2023/03/16 02:34:34;;;;;;;191.10;13.13;;;;;;;;;;4965389;28;20493;-71
2023/03/16 02:37:00;;;;;;;62.05;12.20;;;;;;;;;;4966521;28;20053;-71
2023/03/16 02:39:26;;;;;;;183.10;11.95;;;;;;;;;;4976571;28;20042;-71
2023/03/16 02:41:52;;;;;;;125.75;12.70;;;;;;;;;;4965300;28;20057;-71
2023/03/16 02:44:26;;;;;;;115.82;12.23;;;;;;;;;;4965311;28;20053;-71
2023/03/16 02:46:56;;;;;;;62.92;10.45;;;;;;;;;;4983510;28;20049;-72
2023/03/16 02:49:36;;;;;;;87.43;10.43;;;;;;;;;;4966153;28;20560;-71
2023/03/16 02:52:04;;;;;;;62.88;10.63;;;;;;;;;;4948948;28;20612;-71
2023/03/16 02:54:30;;;;;;;24.63;10.70;;;;;;;;;;4964352;28;20571;-71
2023/03/16 02:56:55;;;;;;;44.60;10.88;;;;;;;;;;4965220;28;20046;-71
2023/03/16 02:59:22;;;;;;;55.72;9.75;;;;;;;;;;4965882;28;20416;-71
2023/03/16 03:01:48;;;;;;;127.03;11.32;;;;;;;;;;4982926;28;20552;-71
2023/03/16 03:04:15;;;;;;;100.35;10.43;;;;;;;;;;4965006;28;20057;-71
2023/03/16 03:06:40;;;;;;;93.32;9.77;;;;;;;;;;4981184;28;20066;-71
2023/03/16 03:09:06;;;;;;;51.33;8.65;;;;;;;;;;4981585;28;20049;-71
2023/03/16 03:11:32;;;;;;;42.55;9.27;;;;;;;;;;4982495;28;20461;-71
2023/03/16 03:13:58;;;;;;;33.95;9.32;;;;;;;;;;4981443;28;20053;-71
2023/03/16 03:16:26;;;;;;;76.45;11.60;;;;;;;;;;4964529;28;20046;-71
2023/03/16 03:18:53;;;;;;;62.08;10.30;;;;;;;;;;4965426;28;20042;-71
2023/03/16 03:21:19;;;;;;;40.30;10.38;;;;;;;;;;4965453;28;20053;-71
2023/03/16 03:23:45;;;;;;;73.85;12.93;;;;;;;;;;4981960;28;20152;-71
2023/03/16 03:26:13;;;;;;;42.55;11.82;;;;;;;;;;4981855;28;20152;-71
2023/03/16 03:28:38;;;;;;;18.20;11.57;;;;;;;;;;4981995;28;20068;-71
2023/03/16 03:31:03;;;;;;;16.25;10.98;;;;;;;;;;4965262;28;20930;-71
2023/03/16 03:33:29;;;;;;;14.30;10.32;;;;;;;;;;4964396;28;20042;-71
2023/03/16 03:35:57;;;;;;;13.70;10.60;;;;;;;;;;4982003;28;20053;-71
2023/03/16 03:38:24;;;;;;;16.83;11.50;;;;;;;;;;4964395;28;20053;-71
2023/03/16 03:40:52;;;;;;;17.40;11.45;;;;;;;;;;4980979;28;20081;-71
2023/03/16 03:43:18;;;;;;;14.82;10.38;;;;;;;;;;4964836;28;20515;-71
2023/03/16 03:45:46;;;;;;;12.43;9.15;;;;;;;;;;4965065;28;20106;-70
2023/03/16 03:48:12;;;;;;;19.70;9.35;;;;;;;;;;4965225;28;20441;-71
2023/03/16 03:50:39;;;;;;;17.42;9.25;;;;;;;;;;4961610;28;20174;-71
2023/03/16 03:53:27;;;;;;;21.20;10.05;;;;;;;;;;4971390;28;20042;-75
2023/03/16 03:56:08;;;;;;;38.38;8.77;;;;;;;;;;4964203;28;20054;-71
2023/03/16 03:58:36;;;;;;;76.53;9.27;;;;;;;;;;4982194;28;20046;-71
2023/03/16 04:01:01;;;;;;;56.50;11.27;;;;;;;;;;4964055;28;20035;-71
2023/03/16 04:03:28;;;;;;;56.90;11.20;;;;;;;;;;4980461;28;20136;-70
2023/03/16 04:05:55;;;;;;;60.95;13.10;;;;;;;;;;4981033;28;20149;-71
2023/03/16 04:08:20;;;;;;;55.35;10.80;;;;;;;;;;4980654;28;20074;-71
2023/03/16 04:10:46;;;;;;;68.40;11.93;;;;;;;;;;4964614;28;20138;-71
2023/03/16 04:13:11;;;;;;;54.80;11.45;;;;;;;;;;4981362;28;20147;-71
2023/03/16 04:15:37;;;;;;;119.50;13.45;;;;;;;;;;4980546;28;20042;-71
2023/03/16 04:18:14;;;;;;;86.15;14.10;;;;;;;;;;4964767;28;20524;-71
2023/03/16 04:20:40;;;;;;;84.47;15.10;;;;;;;;;;4964276;28;20043;-71
2023/03/16 04:23:06;;;;;;;110.20;14.23;;;;;;;;;;4963748;28;20042;-71
2023/03/16 04:25:37;;;;;;;96.75;12.65;;;;;;;;;;4962635;28;20043;-71
2023/03/16 04:28:02;;;;;;;105.13;13.75;;;;;;;;;;4964363;28;20057;-69
2023/03/16 04:30:31;;;;;;;57.08;11.95;;;;;;;;;;4963933;28;20069;-72
2023/03/16 04:33:07;;;;;;;55.42;12.50;;;;;;;;;;4963173;28;20902;-71
2023/03/16 04:35:32;;;;;;;116.20;11.93;;;;;;;;;;4962504;28;20093;-72
2023/03/16 04:37:58;;;;;;;62.83;10.52;;;;;;;;;;4980707;28;20053;-71
2023/03/16 04:40:31;;;;;;;83.93;11.32;;;;;;;;;;4962401;28;20046;-71
2023/03/16 04:43:06;;;;;;;127.63;12.45;;;;;;;;;;4963963;28;20500;-71
2023/03/16 04:45:33;;;;;;;81.70;12.68;;;;;;;;;;4961616;28;20192;-71
2023/03/16 04:47:59;;;;;;;180.52;20.13;;;;;;;;;;4963672;28;20050;-71
2023/03/16 04:50:24;;;;;;;85.63;14.25;;;;;;;;;;4962568;28;20103;-71
2023/03/16 04:52:52;;;;;;;78.40;13.43;;;;;;;;;;4963825;28;20061;-71
2023/03/16 04:55:19;;;;;;;155.38;15.23;;;;;;;;;;4961985;28;20580;-71
2023/03/16 04:57:45;;;;;;;92.95;14.18;;;;;;;;;;4962733;28;20096;-71
2023/03/16 05:00:17;;;;;;;169.98;18.92;;;;;;;;;;4963624;28;20145;-71
2023/03/16 05:02:53;;;;;;;52.08;10.15;;;;;;;;;;4963401;28;20544;-71
2023/03/16 05:05:20;;;;;;;46.05;11.18;;;;;;;;;;4963125;28;20042;-71
2023/03/16 05:07:46;;;;;;;77.43;13.23;;;;;;;;;;4961576;28;20159;-72
2023/03/16 05:10:14;;;;;;;97.50;11.80;;;;;;;;;;4962328;28;20133;-71
2023/03/16 05:12:39;;;;;;;46.78;11.63;;;;;;;;;;4977956;28;20054;-71
2023/03/16 05:15:07;;;;;;;64.57;14.15;;;;;;;;;;4961865;28;20177;-71
2023/03/16 05:17:36;;;;;;;53.97;11.93;;;;;;;;;;4965006;28;20053;-70
2023/03/16 05:20:06;;;;;;;76.20;12.40;;;;;;;;;;4962484;28;20121;-71
2023/03/16 05:22:34;;;;;;;70.72;12.88;;;;;;;;;;4978236;28;20046;-70
2023/03/16 05:25:13;;;;;;;78.97;12.75;;;;;;;;;;4978638;28;20564;-70
2023/03/16 05:27:49;;;;;;;91.20;15.30;;;;;;;;;;4978155;28;20112;-70
2023/03/16 05:30:22;;;;;;;63.15;11.80;;;;;;;;;;4961792;28;20053;-70
2023/03/16 05:32:50;;;;;;;70.93;13.75;;;;;;;;;;4962822;28;20460;-70
2023/03/16 05:35:16;;;;;;;92.05;14.80;;;;;;;;;;4962650;28;20090;-70
2023/03/16 05:37:43;;;;;;;81.18;17.05;;;;;;;;;;4951592;28;20042;-70
2023/03/16 05:40:17;;;;;;;66.15;14.30;;;;;;;;;;4977856;28;20112;-70
2023/03/16 05:42:52;;;;;;;63.45;14.15;;;;;;;;;;4962324;28;20045;-70
2023/03/16 05:45:18;;;;;;;58.92;15.80;;;;;;;;;;4977530;28;20527;-70
2023/03/16 05:47:55;;;;;;;33.75;14.48;;;;;;;;;;4961563;28;20042;-70
2023/03/16 05:50:21;;;;;;;51.65;14.45;;;;;;;;;;4971833;28;20053;-70
2023/03/16 05:52:47;;;;;;;60.80;15.05;;;;;;;;;;4976445;28;20077;-70
2023/03/16 05:55:20;;;;;;;92.28;16.02;;;;;;;;;;4978844;28;20641;-70
2023/03/16 05:57:51;;;;;;;86.60;15.43;;;;;;;;;;4961761;28;20774;-70
2023/03/16 06:00:18;;;;;;;74.30;15.50;;;;;;;;;;4961794;28;20049;-69
2023/03/16 06:02:51;;;;;;;74.97;14.57;;;;;;;;;;4960872;28;20042;-70
2023/03/16 06:05:19;;;;;;;71.95;12.98;;;;;;;;;;4977897;28;20641;-70
2023/03/16 06:07:46;;;;;;;66.00;14.82;;;;;;;;;;4961991;28;20046;-70
2023/03/16 06:10:13;;;;;;;67.22;14.52;;;;;;;;;;4962141;28;20105;-71
2023/03/16 06:12:40;;;;;;;134.52;18.55;;;;;;;;;;4960220;28;20046;-70
2023/03/16 06:15:06;;;;;;;67.22;14.35;;;;;;;;;;4962448;28;20046;-71
2023/03/16 06:17:34;;;;;;;54.95;18.05;;;;;;;;;;4960416;28;20086;-71
2023/03/16 06:20:00;;;;;;;86.13;18.00;;;;;;;;;;4962129;28;20393;-71
2023/03/16 06:22:28;;;;;;;74.57;16.13;;;;;;;;;;4978381;28;20046;-71
2023/03/16 06:24:54;;;;;;;63.47;19.05;;;;;;;;;;4977771;28;20042;-71
2023/03/16 06:27:20;;;;;;;62.53;15.93;;;;;;;;;;4961160;28;20489;-71
2023/03/16 06:30:02;;;;;;;67.75;15.25;;;;;;;;;;4937544;28;20049;-70
2023/03/16 06:32:28;;;;;;;47.58;16.60;;;;;;;;;;4962198;28;20094;-71
2023/03/16 06:34:54;;;;;;;57.17;17.77;;;;;;;;;;4962679;28;20049;-71
2023/03/16 06:37:20;;;;;;;47.55;15.63;;;;;;;;;;4965028;28;20081;-71
2023/03/16 06:39:46;;;;;;;42.22;15.85;;;;;;;;;;4964195;28;20081;-71
2023/03/16 06:42:12;;;;;;;45.92;17.52;;;;;;;;;;4963660;28;20484;-71
2023/03/16 06:44:37;;;;;;;55.65;17.67;;;;;;;;;;4964074;28;20133;-71
2023/03/16 06:47:09;;;;;;;49.03;17.63;;;;;;;;;;4965724;28;20038;-71
2023/03/16 06:49:34;;;;;;;46.83;18.83;;;;;;;;;;4980491;28;20070;-71
2023/03/16 06:52:04;;;;;;;36.05;17.60;;;;;;;;;;4965422;28;20051;-71
2023/03/16 06:54:33;;;;;;;35.75;16.70;;;;;;;;;;4964323;28;20047;-71
2023/03/16 06:56:58;;;;;;;35.28;17.95;;;;;;;;;;4984644;28;20049;-72
2023/03/16 06:59:23;;;;;;;38.42;16.50;;;;;;;;;;4977413;28;20046;-71
2023/03/16 07:01:49;;;;;;;39.80;18.25;;;;;;;;;;4971372;28;20485;-71
2023/03/16 07:04:15;;;;;;;36.83;16.20;;;;;;;;;;4990031;28;20050;-71
2023/03/16 07:06:40;;;;;;;33.40;16.42;;;;;;;;;;4973618;28;20086;-71
2023/03/16 07:09:06;;;;;;;35.10;15.88;;;;;;;;;;4972776;28;20057;-71
2023/03/16 07:11:33;;;;;;;26.77;13.68;;;;;;;;;;4989483;28;20038;-72
2023/03/16 07:13:58;;;;;;;25.02;12.45;;;;;;;;;;4975409;28;20105;-71
2023/03/16 07:16:26;;;;;;;30.38;14.60;;;;;;;;;;4990418;28;20053;-71
2023/03/16 07:18:52;;;;;;;24.40;13.20;;;;;;;;;;4957698;28;20050;-71
2023/03/16 07:21:19;;;;;;;27.92;14.40;;;;;;;;;;4970661;28;20065;-71
2023/03/16 07:23:45;;;;;;;24.63;12.70;;;;;;;;;;4969581;28;20439;-71
2023/03/16 07:26:14;;;;;;;25.63;14.18;;;;;;;;;;4966021;28;20058;-71
2023/03/16 07:28:49;;;;;;;25.52;13.57;;;;;;;;;;4965703;28;20073;-71
2023/03/16 07:31:15;;;;;;;25.60;13.07;;;;;;;;;;4965327;28;20051;-71
2023/03/16 07:33:40;;;;;;;22.45;12.35;;;;;;;;;;4965191;28;20097;-71
2023/03/16 07:36:10;;;;;;;24.88;14.13;;;;;;;;;;4965236;28;20081;-70
2023/03/16 07:38:41;;;;;;;19.67;11.15;;;;;;;;;;4981784;28;20046;-71
2023/03/16 07:41:07;;;;;;;23.70;13.35;;;;;;;;;;4964986;28;20850;-71
2023/03/16 07:43:34;;;;;;;30.73;14.85;;;;;;;;;;4958835;28;20096;-71
2023/03/16 07:46:01;;;;;;;24.95;12.45;;;;;;;;;;4968090;28;20045;-72
2023/03/16 07:48:27;;;;;;;25.98;12.23;;;;;;;;;;4983842;28;20891;-70
2023/03/16 07:50:57;;;;;;;21.00;11.25;;;;;;;;;;4965894;28;20050;-71
2023/03/16 07:53:23;;;;;;;25.23;14.60;;;;;;;;;;4966808;28;20044;-70
2023/03/16 07:55:55;;;;;;;36.08;16.88;;;;;;;;;;4965057;28;20057;-72
2023/03/16 07:58:21;;;;;;;25.05;13.80;;;;;;;;;;4966587;28;20046;-71
2023/03/16 08:00:48;;;;;;;19.75;11.43;;;;;;;;;;4966212;28;20572;-71
2023/03/16 08:03:13;;;;;;;23.13;12.07;;;;;;;;;;4982299;28;20133;-71
2023/03/16 08:05:39;;;;;;;23.80;13.25;;;;;;;;;;4963970;28;20097;-71
2023/03/16 08:08:10;;;;;;;23.48;13.05;;;;;;;;;;4965538;28;20042;-71
2023/03/16 08:10:38;;;;;;;18.52;10.75;;;;;;;;;;4964972;28;20042;-71
2023/03/16 08:13:09;;;;;;;13.70;9.30;;;;;;;;;;4966899;28;20050;-71
2023/03/16 08:15:39;;;;;;;18.90;10.98;;;;;;;;;;4965218;28;20052;-72
2023/03/16 08:18:11;;;;;;;21.65;12.63;;;;;;;;;;4958068;28;20050;-71
2023/03/16 08:20:36;;;;;;;23.92;14.00;;;;;;;;;;4974900;28;20046;-71
2023/03/16 08:23:02;;;;;;;25.77;14.05;;;;;;;;;;4983084;28;20117;-71
2023/03/16 08:25:35;;;;;;;20.55;10.82;;;;;;;;;;4964463;28;21028;-71
2023/03/16 08:28:14;;;;;;;24.45;14.00;;;;;;;;;;4958715;28;20069;-70
2023/03/16 08:30:48;;;;;;;10.20;7.57;;;;;;;;;;4981538;28;20046;-71
2023/03/16 08:33:24;;;;;;;22.27;12.02;;;;;;;;;;4966033;28;20042;-70
2023/03/16 08:35:51;;;;;;;18.75;11.32;;;;;;;;;;4964809;28;20195;-71
2023/03/16 08:38:18;;;;;;;15.00;9.32;;;;;;;;;;4965016;28;20900;-71
2023/03/16 08:40:47;;;;;;;18.38;10.88;;;;;;;;;;4964029;28;21125;-71
2023/03/16 08:43:15;;;;;;;22.17;12.55;;;;;;;;;;4964646;28;20057;-71
2023/03/16 08:45:44;;;;;;;19.95;12.23;;;;;;;;;;4963501;28;20069;-71
2023/03/16 08:48:11;;;;;;;20.30;13.23;;;;;;;;;;4963379;28;20105;-71
2023/03/16 08:50:42;;;;;;;19.63;11.75;;;;;;;;;;4964196;28;20190;-70
2023/03/16 08:53:09;;;;;;;24.23;13.10;;;;;;;;;;4981490;28;20133;-72
2023/03/16 08:55:35;;;;;;;19.17;11.50;;;;;;;;;;4980826;28;20050;-71
2023/03/16 08:58:01;;;;;;;17.25;11.27;;;;;;;;;;4981356;28;20413;-71
2023/03/16 09:00:28;;;;;;;23.55;11.80;;;;;;;;;;4982516;28;20484;-71
2023/03/16 09:02:54;;;;;;;17.70;10.02;;;;;;;;;;4981234;28;20042;-69
2023/03/16 09:05:20;;;;;;;23.00;13.02;;;;;;;;;;4981479;28;20398;-69
2023/03/16 09:07:46;;;;;;;18.40;10.73;;;;;;;;;;4980922;28;20573;-69
2023/03/16 09:10:14;;;;;;;21.52;12.15;;;;;;;;;;4962447;28;20149;-69
2023/03/16 09:12:41;;;;;;;22.30;12.60;;;;;;;;;;4980577;28;20065;-70
2023/03/16 09:15:09;;;;;;;21.58;11.52;;;;;;;;;;4981038;28;20105;-70
2023/03/16 09:17:35;;;;;;;19.33;10.52;;;;;;;;;;4980740;28;20124;-69
2023/03/16 09:20:03;;;;;;;19.90;9.23;;;;;;;;;;4982760;28;20053;-69
2023/03/16 09:22:29;;;;;;;22.40;12.27;;;;;;;;;;4975608;28;20133;-69
2023/03/16 09:24:54;;;;;;;20.42;11.82;;;;;;;;;;4983013;28;20133;-69
2023/03/16 09:27:21;;;;;;;23.20;10.88;;;;;;;;;;4982221;28;20129;-69
2023/03/16 09:29:47;;;;;;;20.70;12.68;;;;;;;;;;4981578;28;20064;-69
2023/03/16 09:32:13;;;;;;;19.05;11.13;;;;;;;;;;4979902;28;20061;-69
2023/03/16 09:34:38;;;;;;;17.50;11.00;;;;;;;;;;4962860;28;20046;-70
2023/03/16 09:37:04;;;;;;;15.40;9.27;;;;;;;;;;4980819;28;20042;-70
2023/03/16 09:39:30;;;;;;;12.95;7.35;;;;;;;;;;4980672;28;20050;-69
2023/03/16 09:42:05;;;;;;;12.02;8.00;;;;;;;;;;4979899;28;20039;-70
2023/03/16 09:44:55;;;;;;;15.15;10.43;;;;;;;;;;4980371;28;20076;-69
2023/03/16 09:47:26;;;;;;;14.82;9.02;;;;;;;;;;4980710;28;20054;-71
2023/03/16 09:49:56;;;;;;;14.73;8.60;;;;;;;;;;4980867;28;20125;-70
2023/03/16 09:52:26;;;;;;;11.60;8.52;;;;;;;;;;4982375;28;20050;-71
2023/03/16 09:55:04;;;;;;;12.65;8.25;;;;;;;;;;4986167;28;20046;-70
2023/03/16 09:57:34;;;;;;;16.88;10.32;;;;;;;;;;4986007;28;20061;-70
2023/03/16 10:00:20;;;;;;;14.00;9.70;;;;;;;;;;4983081;28;20057;-71
2023/03/16 10:03:08;;;;;;;15.18;9.35;;;;;;;;;;4983445;28;20061;-71
2023/03/16 10:05:36;;;;;;;12.63;7.82;;;;;;;;;;4974808;28;20042;-71
2023/03/16 10:08:07;;;;;;;12.30;8.20;;;;;;;;;;4984058;28;20057;-71
2023/03/16 10:10:38;;;;;;;17.23;9.70;;;;;;;;;;4982905;28;21072;-71
2023/03/16 10:13:15;;;;;;;13.05;9.68;;;;;;;;;;4982783;28;20054;-71
2023/03/16 10:15:41;;;;;;;13.57;8.65;;;;;;;;;;4979070;28;20185;-71
2023/03/16 10:18:19;;;;;;;10.45;8.23;;;;;;;;;;4963401;28;20152;-71
2023/03/16 10:20:46;;;;;;;17.15;10.45;;;;;;;;;;4980597;28;20046;-71
2023/03/16 10:23:18;;;;;;;15.35;10.52;;;;;;;;;;4981164;28;20070;-70
2023/03/16 10:25:47;;;;;;;12.45;9.15;;;;;;;;;;4981213;28;20046;-71
2023/03/16 10:28:21;;;;;;;13.00;8.98;;;;;;;;;;4981514;28;20471;-71
2023/03/16 10:30:49;;;;;;;14.80;9.40;;;;;;;;;;4980249;28;20046;-71
2023/03/16 10:33:27;;;;;;;12.35;8.65;;;;;;;;;;4981014;28;20038;-71
2023/03/16 10:36:12;;;;;;;11.25;8.20;;;;;;;;;;4982132;28;20385;-71
2023/03/16 10:38:45;;;;;;;10.02;6.95;;;;;;;;;;4983579;28;20061;-72
2023/03/16 10:41:17;;;;;;;10.50;7.55;;;;;;;;;;4984756;28;20047;-71
2023/03/16 10:43:43;;;;;;;10.60;8.07;;;;;;;;;;4985078;28;20471;-72
2023/03/16 10:46:10;;;;;;;11.45;7.70;;;;;;;;;;4984188;28;20065;-70
2023/03/16 10:48:37;;;;;;;9.85;7.88;;;;;;;;;;4983422;28;20050;-72
2023/03/16 10:51:14;;;;;;;7.30;6.30;;;;;;;;;;4985182;28;20106;-70
2023/03/16 10:53:43;;;;;;;8.30;5.93;;;;;;;;;;4986806;28;20128;-70
2023/03/16 10:56:19;;;;;;;7.43;6.57;;;;;;;;;;4985758;28;20069;-72
2023/03/16 10:58:45;;;;;;;9.23;5.80;;;;;;;;;;4982737;28;20490;-72
2023/03/16 11:01:25;;;;;;;8.20;6.57;;;;;;;;;;4983857;28;20519;-71
2023/03/16 11:03:54;;;;;;;7.93;6.25;;;;;;;;;;4983232;28;20046;-71
2023/03/16 11:06:31;;;;;;;8.70;6.22;;;;;;;;;;4983830;28;20117;-70
2023/03/16 11:09:18;;;;;;;10.20;6.05;;;;;;;;;;4983625;28;20065;-72
2023/03/16 11:11:48;;;;;;;6.55;4.75;;;;;;;;;;4982840;28;20108;-71
2023/03/16 11:14:17;;;;;;;8.88;5.57;;;;;;;;;;4983796;28;21206;-71
2023/03/16 11:16:52;;;;;;;6.75;4.85;;;;;;;;;;4984057;28;20141;-70
2023/03/16 11:19:23;;;;;;;6.05;4.53;;;;;;;;;;4985311;28;20104;-71
2023/03/16 11:22:00;;;;;;;6.03;4.78;;;;;;;;;;4982900;28;20460;-72
2023/03/16 11:24:34;;;;;;;7.22;5.10;;;;;;;;;;4984368;28;20501;-72
2023/03/16 11:27:02;;;;;;;6.97;5.30;;;;;;;;;;4983536;28;20046;-71
2023/03/16 11:29:35;;;;;;;7.72;5.30;;;;;;;;;;4985564;28;20124;-71
2023/03/16 11:32:09;;;;;;;6.05;5.45;;;;;;;;;;4984367;28;20062;-70
2023/03/16 11:34:35;;;;;;;7.30;5.43;;;;;;;;;;4987248;28;20552;-70
2023/03/16 11:37:24;;;;;;;7.68;5.18;;;;;;;;;;4985199;28;20049;-70
2023/03/16 11:40:37;;;;;;;6.78;4.10;;;;;;;;;;4986415;28;20042;-71
2023/03/16 11:43:21;;;;;;;6.13;4.97;;;;;;;;;;4985065;28;20101;-71
2023/03/16 11:46:06;;;;;;;6.20;4.40;;;;;;;;;;4985553;28;20042;-70
2023/03/16 11:48:49;;;;;;;4.53;3.95;;;;;;;;;;4984225;28;20050;-71
2023/03/16 11:51:30;;;;;;;5.68;4.22;;;;;;;;;;4984630;28;20108;-71
2023/03/16 11:54:33;;;;;;;5.07;3.50;;;;;;;;;;4981404;28;20090;-70
2023/03/16 11:57:08;;;;;;;6.03;3.78;;;;;;;;;;4987867;28;20501;-70
2023/03/16 11:59:56;;;;;;;4.07;3.65;;;;;;;;;;4987463;28;20054;-71
2023/03/16 12:02:42;;;;;;;7.90;4.07;;;;;;;;;;4984679;28;20058;-71
2023/03/16 12:05:16;;;;;;;3.50;3.20;;;;;;;;;;4982425;28;20041;-71
2023/03/16 12:08:09;;;;;;;5.88;3.80;;;;;;;;;;4983252;28;20165;-72
2023/03/16 12:10:59;;;;;;;3.45;3.15;;;;;;;;;;4983623;28;20500;-71
2023/03/16 12:13:52;;;;;;;5.15;2.90;;;;;;;;;;4984345;28;20137;-72
2023/03/16 12:16:28;;;;;;;2.83;2.63;;;;;;;;;;4945677;28;20081;-72
2023/03/16 12:19:21;;;;;;;3.25;2.95;;;;;;;;;;4984435;28;20049;-70
2023/03/16 12:21:52;;;;;;;3.00;2.40;;;;;;;;;;4976731;28;20065;-71
2023/03/16 12:24:24;;;;;;;4.63;2.92;;;;;;;;;;4982935;28;20615;-71
2023/03/16 12:26:52;;;;;;;3.10;2.80;;;;;;;;;;4985859;28;20515;-71
2023/03/16 12:29:34;;;;;;;4.22;3.10;;;;;;;;;;4983233;28;20050;-71
2023/03/16 12:32:31;;;;;;;3.85;2.38;;;;;;;;;;4982068;28;20069;-71
2023/03/16 12:35:17;;;;;;;2.65;2.45;;;;;;;;;;4981837;28;20057;-72
2023/03/16 12:37:43;;;;;;;3.28;2.97;;;;;;;;;;4981306;28;20080;-72
2023/03/16 12:44:31;;;;;;;3.65;3.20;;;;;;;;;;4984640;28;20644;-72
2023/03/16 12:47:05;;;;;;;3.38;2.95;;;;;;;;;;4970436;28;20129;-72
2023/03/16 12:49:33;;;;;;;3.40;2.97;;;;;;;;;;4982379;28;20046;-72
2023/03/16 12:52:01;;;;;;;2.70;2.50;;;;;;;;;;4983494;28;20051;-72
2023/03/16 12:54:27;;;;;;;4.22;3.13;;;;;;;;;;4989763;28;20046;-72
2023/03/16 12:57:03;;;;;;;3.20;2.92;;;;;;;;;;4981547;28;20049;-72
2023/03/16 12:59:46;;;;;;;3.00;2.67;;;;;;;;;;4982794;28;20051;-72
2023/03/16 13:02:25;;;;;;;2.75;2.53;;;;;;;;;;4963206;28;20038;-71
2023/03/16 13:05:09;;;;;;;3.20;2.28;;;;;;;;;;4981475;28;20449;-72
2023/03/16 13:07:36;;;;;;;2.65;2.45;;;;;;;;;;4980739;28;20045;-71
2023/03/16 13:10:14;;;;;;;3.10;2.40;;;;;;;;;;4980743;28;20093;-71
2023/03/16 13:12:42;;;;;;;2.60;2.40;;;;;;;;;;4976525;28;20104;-71
2023/03/16 13:15:21;;;;;;;3.10;2.50;;;;;;;;;;4980366;28;20206;-71
2023/03/16 13:18:03;;;;;;;2.50;2.30;;;;;;;;;;4982953;28;20054;-72
2023/03/16 13:20:33;;;;;;;2.72;2.33;;;;;;;;;;4982708;28;20046;-72
2023/03/16 13:23:17;;;;;;;4.80;2.20;;;;;;;;;;4985473;28;20472;-70
2023/03/16 13:26:04;;;;;;;2.00;1.90;;;;;;;;;;4983062;28;20511;-71
2023/03/16 13:28:34;;;;;;;3.55;2.58;;;;;;;;;;4978370;28;20046;-72
2023/03/16 13:31:00;;;;;;;4.03;2.83;;;;;;;;;;4978996;28;20712;-74
2023/03/16 13:33:29;;;;;;;4.20;3.10;;;;;;;;;;4975860;28;20112;-71
2023/03/16 13:35:56;;;;;;;2.67;2.47;;;;;;;;;;4978522;28;21574;-73
2023/03/16 13:38:30;;;;;;;3.22;2.30;;;;;;;;;;4977539;28;20103;-72
2023/03/16 13:41:09;;;;;;;3.58;2.38;;;;;;;;;;4978278;28;20160;-72
2023/03/16 13:43:40;;;;;;;2.60;2.40;;;;;;;;;;4978990;28;20038;-72
2023/03/16 13:46:17;;;;;;;2.58;2.35;;;;;;;;;;4982830;28;20659;-71
2023/03/16 13:48:43;;;;;;;2.92;2.47;;;;;;;;;;4979452;28;20282;-71
2023/03/16 13:51:21;;;;;;;3.03;1.90;;;;;;;;;;4972595;28;20501;-72
2023/03/16 13:53:49;;;;;;;3.15;2.40;;;;;;;;;;4976743;28;20086;-72
2023/03/16 13:56:20;;;;;;;2.38;2.05;;;;;;;;;;4976565;28;20108;-72
2023/03/16 13:58:50;;;;;;;2.50;2.22;;;;;;;;;;4977657;28;20061;-73
2023/03/16 14:01:21;;;;;;;3.30;3.00;;;;;;;;;;4981703;28;20061;-71
2023/03/16 14:03:47;;;;;;;3.03;2.40;;;;;;;;;;4979014;28;20848;-71
2023/03/16 14:06:25;;;;;;;2.97;2.22;;;;;;;;;;4977986;28;20528;-71
2023/03/16 14:08:53;;;;;;;2.08;1.88;;;;;;;;;;4978812;28;20073;-71
2023/03/16 14:11:18;;;;;;;2.90;2.25;;;;;;;;;;4981356;28;20055;-71
2023/03/16 14:13:51;;;;;;;4.05;2.83;;;;;;;;;;4981087;28;20105;-71
2023/03/16 14:16:18;;;;;;;3.88;2.85;;;;;;;;;;4980793;28;20138;-71
2023/03/16 14:18:52;;;;;;;4.65;2.85;;;;;;;;;;4982660;28;20050;-71
2023/03/16 14:21:24;;;;;;;3.47;2.70;;;;;;;;;;4981705;28;20099;-71
2023/03/16 14:23:58;;;;;;;2.65;2.45;;;;;;;;;;4980952;28;20918;-70
2023/03/16 14:26:24;;;;;;;4.35;3.03;;;;;;;;;;4982335;28;20053;-70
2023/03/16 14:29:23;;;;;;;3.80;2.40;;;;;;;;;;4981861;28;20420;-71
2023/03/16 14:31:49;;;;;;;4.20;2.42;;;;;;;;;;4962134;28;20049;-72
2023/03/16 14:34:34;;;;;;;4.50;3.30;;;;;;;;;;4982029;28;20050;-71
2023/03/16 14:37:08;;;;;;;2.95;2.60;;;;;;;;;;4977385;28;20046;-71
2023/03/16 14:39:34;;;;;;;3.33;2.80;;;;;;;;;;4981948;28;20041;-74
2023/03/16 14:42:03;;;;;;;3.25;2.10;;;;;;;;;;4983804;28;20477;-71
2023/03/16 14:44:33;;;;;;;2.60;2.40;;;;;;;;;;4984479;28;20054;-71
2023/03/16 14:47:00;;;;;;;2.78;2.30;;;;;;;;;;4984463;28;20087;-71
2023/03/16 14:49:32;;;;;;;2.50;2.25;;;;;;;;;;4981822;28;20602;-71